createdAt,value
2022-11-20T00:00:40.574Z,20.75
2022-11-20T00:03:07.115Z,18.48
2022-11-20T00:05:33.924Z,20.42
2022-11-20T00:08:00.539Z,18.65
2022-11-20T00:10:27.146Z,18.77
2022-11-20T00:12:53.822Z,16.20
2022-11-20T00:15:20.366Z,15.25
2022-11-20T00:17:48.269Z,15.13
2022-11-20T00:20:15.673Z,17.70
2022-11-20T00:22:42.238Z,21.65
2022-11-20T00:25:09.170Z,20.13
2022-11-20T00:27:35.747Z,17.90
2022-11-20T00:30:02.374Z,17.25
2022-11-20T00:32:28.950Z,21.75
2022-11-20T00:34:56.967Z,17.52
2022-11-20T00:37:23.616Z,22.73
2022-11-20T00:39:50.217Z,18.00
2022-11-20T00:42:16.861Z,17.42
2022-11-20T00:44:43.551Z,18.00
2022-11-20T00:47:10.128Z,21.77
2022-11-20T00:49:36.720Z,20.33
2022-11-20T00:52:04.979Z,19.90
2022-11-20T00:54:31.885Z,18.08
2022-11-20T00:56:58.497Z,18.45
2022-11-20T00:59:25.067Z,19.10
2022-11-20T01:01:51.640Z,16.33
2022-11-20T01:04:18.244Z,17.83
2022-11-20T01:06:44.848Z,18.90
2022-11-20T01:09:14.583Z,17.02
2022-11-20T01:11:43.500Z,18.77
2022-11-20T01:14:12.969Z,18.02
2022-11-20T01:16:41.605Z,19.40
2022-11-20T01:19:17.372Z,18.65
2022-11-20T01:21:46.466Z,18.75
2022-11-20T01:24:15.913Z,18.15
2022-11-20T01:26:43.892Z,15.32
2022-11-20T01:29:14.766Z,20.88
2022-11-20T01:31:41.413Z,17.30
2022-11-20T01:34:11.298Z,19.10
2022-11-20T01:36:39.248Z,17.95
2022-11-20T01:39:08.476Z,20.52
2022-11-20T01:41:36.502Z,18.05
2022-11-20T01:44:04.901Z,18.42
2022-11-20T01:46:32.939Z,18.88
2022-11-20T01:49:03.315Z,18.77
2022-11-20T01:51:34.271Z,20.25
2022-11-20T01:54:06.191Z,19.85
2022-11-20T01:56:39.898Z,16.63
2022-11-20T01:59:09.449Z,19.23
2022-11-20T02:01:36.059Z,19.73
2022-11-20T02:04:03.440Z,20.65
2022-11-20T02:06:35.182Z,17.73
2022-11-20T02:09:01.841Z,17.67
2022-11-20T02:11:31.227Z,19.70
2022-11-20T02:14:00.385Z,19.45
2022-11-20T02:16:30.108Z,19.17
2022-11-20T02:19:00.549Z,19.48
2022-11-20T02:21:37.341Z,19.38
2022-11-20T02:24:16.053Z,18.48
2022-11-20T02:26:49.078Z,20.55
2022-11-20T02:29:19.814Z,18.88
2022-11-20T02:31:47.039Z,20.92
2022-11-20T02:34:13.622Z,18.13
2022-11-20T02:36:43.320Z,21.00
2022-11-20T02:39:12.231Z,20.55
2022-11-20T02:41:40.267Z,18.98
2022-11-20T02:44:06.877Z,20.70
2022-11-20T02:46:33.548Z,20.85
2022-11-20T02:49:01.092Z,19.73
2022-11-20T02:51:27.738Z,21.73
2022-11-20T02:53:54.353Z,23.92
2022-11-20T02:56:21.066Z,22.80
2022-11-20T02:58:49.078Z,21.77
2022-11-20T03:01:15.891Z,20.58
2022-11-20T03:03:42.549Z,19.23
2022-11-20T03:06:09.288Z,21.70
2022-11-20T03:08:35.874Z,25.35
2022-11-20T03:11:06.889Z,24.73
2022-11-20T03:13:33.967Z,22.80
2022-11-20T03:16:08.033Z,22.42
2022-11-20T03:18:34.618Z,20.35
2022-11-20T03:21:01.361Z,22.95
2022-11-20T03:23:30.812Z,26.48
2022-11-20T03:25:57.500Z,23.95
2022-11-20T03:28:24.106Z,20.23
2022-11-20T03:30:50.664Z,21.25
2022-11-20T03:33:18.612Z,24.67
2022-11-20T03:35:45.144Z,22.00
2022-11-20T03:38:11.739Z,25.17
2022-11-20T03:40:38.404Z,25.00
2022-11-20T03:43:04.989Z,22.23
2022-11-20T03:45:31.525Z,22.25
2022-11-20T03:47:58.076Z,24.95
2022-11-20T03:50:26.012Z,24.10
2022-11-20T03:52:52.746Z,24.30
2022-11-20T03:55:19.320Z,25.67
2022-11-20T03:57:45.887Z,24.60
2022-11-20T04:00:13.991Z,20.60
2022-11-20T04:02:40.771Z,21.23
2022-11-20T04:05:07.791Z,25.35
2022-11-20T04:07:36.368Z,25.13
2022-11-20T04:10:03.762Z,23.73
2022-11-20T04:12:33.147Z,25.23
2022-11-20T04:14:59.689Z,23.30
2022-11-20T04:17:26.216Z,25.48
2022-11-20T04:19:52.816Z,26.25
2022-11-20T04:22:19.457Z,28.27
2022-11-20T04:24:47.363Z,22.98
2022-11-20T04:27:13.934Z,27.85
2022-11-20T04:29:40.492Z,25.52
2022-11-20T04:32:07.171Z,28.05
2022-11-20T04:34:33.885Z,24.95
2022-11-20T04:37:00.447Z,24.00
2022-11-20T04:39:27.085Z,22.35
2022-11-20T04:41:55.145Z,27.23
2022-11-20T04:44:21.728Z,24.17
2022-11-20T04:46:48.276Z,28.25
2022-11-20T04:49:15.381Z,28.77
2022-11-20T04:51:42.103Z,26.48
2022-11-20T04:54:09.458Z,25.35
2022-11-20T04:56:35.996Z,26.65
2022-11-20T04:59:04.001Z,25.40
2022-11-20T05:01:31.364Z,25.17
2022-11-20T05:03:58.016Z,25.15
2022-11-20T05:06:24.603Z,27.98
2022-11-20T05:08:51.366Z,27.23
2022-11-20T05:11:19.914Z,26.75
2022-11-20T05:13:46.571Z,26.40
2022-11-20T05:16:16.553Z,26.38
2022-11-20T05:18:43.730Z,24.17
2022-11-20T05:21:11.663Z,22.67
2022-11-20T05:23:38.420Z,29.33
2022-11-20T05:26:06.089Z,26.15
2022-11-20T05:28:34.756Z,24.15
2022-11-20T05:31:06.243Z,26.52
2022-11-20T05:33:35.406Z,24.70
2022-11-20T05:36:02.236Z,26.20
2022-11-20T05:38:28.805Z,25.45
2022-11-20T05:40:55.438Z,29.48
2022-11-20T05:43:22.001Z,39.50
2022-11-20T05:45:53.569Z,30.65
2022-11-20T05:48:20.096Z,31.75
2022-11-20T05:50:48.139Z,26.30
2022-11-20T05:53:14.707Z,25.77
2022-11-20T05:55:41.523Z,26.70
2022-11-20T05:58:08.199Z,25.67
2022-11-20T06:00:34.900Z,29.65
2022-11-20T06:03:01.506Z,27.30
2022-11-20T06:05:28.194Z,30.05
2022-11-20T06:07:56.132Z,26.48
2022-11-20T06:10:22.718Z,27.25
2022-11-20T06:12:49.271Z,27.50
2022-11-20T06:15:16.222Z,26.77
2022-11-20T06:17:42.767Z,26.38
2022-11-20T06:20:10.826Z,27.05
2022-11-20T06:22:37.399Z,28.02
2022-11-20T06:25:05.718Z,28.17
2022-11-20T06:27:32.269Z,30.77
2022-11-20T06:29:58.884Z,27.50
2022-11-20T06:32:25.557Z,27.15
2022-11-20T06:34:52.114Z,28.17
2022-11-20T06:37:18.690Z,28.65
2022-11-20T06:39:45.232Z,30.15
2022-11-20T06:42:13.274Z,24.98
2022-11-20T06:44:39.818Z,27.77
2022-11-20T06:47:06.416Z,25.77
2022-11-20T06:49:33.002Z,29.88
2022-11-20T06:51:59.595Z,28.20
2022-11-20T06:54:26.263Z,29.65
2022-11-20T06:56:52.816Z,31.83
2022-11-20T06:59:21.172Z,28.15
2022-11-20T07:01:47.885Z,31.48
2022-11-20T07:04:14.487Z,26.90
2022-11-20T07:06:41.111Z,27.77
2022-11-20T07:09:12.544Z,29.88
2022-11-20T07:11:39.496Z,34.60
2022-11-20T07:14:06.054Z,30.98
2022-11-20T07:16:34.391Z,29.75
2022-11-20T07:19:01.002Z,29.02
2022-11-20T07:21:27.612Z,30.17
2022-11-20T07:23:54.236Z,27.50
2022-11-20T07:26:20.806Z,30.98
2022-11-20T07:28:47.356Z,31.77
2022-11-20T07:31:18.785Z,27.20
2022-11-20T07:33:47.524Z,30.90
2022-11-20T07:36:14.109Z,30.50
2022-11-20T07:38:40.728Z,34.53
2022-11-20T07:41:07.293Z,30.13
2022-11-20T07:43:37.172Z,33.05
2022-11-20T07:46:06.394Z,30.40
2022-11-20T07:48:33.024Z,30.38
2022-11-20T07:51:01.049Z,28.63
2022-11-20T07:53:27.606Z,29.25
2022-11-20T07:55:54.253Z,27.13
2022-11-20T07:58:21.696Z,26.83
2022-11-20T08:00:48.286Z,27.40
2022-11-20T08:03:15.334Z,29.50
2022-11-20T08:05:43.673Z,26.92
2022-11-20T08:08:11.671Z,26.60
2022-11-20T08:10:38.312Z,29.13
2022-11-20T08:13:04.897Z,29.63
2022-11-20T08:15:31.907Z,26.23
2022-11-20T08:18:29.526Z,30.92
2022-11-20T08:20:49.330Z,26.95
2022-11-20T08:23:17.278Z,29.80
2022-11-20T08:25:43.829Z,30.35
2022-11-20T08:28:20.127Z,27.88
2022-11-20T08:30:47.236Z,28.15
2022-11-20T08:33:13.800Z,37.55
2022-11-20T08:35:40.422Z,43.42
2022-11-20T08:38:07.581Z,29.63
2022-11-20T08:40:35.545Z,32.67
2022-11-20T08:43:02.102Z,27.95
2022-11-20T08:45:33.780Z,25.20
2022-11-20T08:48:01.919Z,28.30
2022-11-20T08:50:28.640Z,27.42
2022-11-20T08:52:55.230Z,23.17
2022-11-20T08:55:21.937Z,25.92
2022-11-20T08:57:51.244Z,27.63
2022-11-20T09:00:18.285Z,27.05
2022-11-20T09:02:44.842Z,24.65
2022-11-20T09:05:12.191Z,22.75
2022-11-20T09:07:38.780Z,27.10
2022-11-20T09:12:54.871Z,26.52
2022-11-20T09:15:22.446Z,27.58
2022-11-20T09:17:52.563Z,24.70
2022-11-20T09:20:19.208Z,27.20
2022-11-20T09:22:45.850Z,24.73
2022-11-20T09:25:12.509Z,28.27
2022-11-20T09:27:39.129Z,27.52
2022-11-20T09:30:08.616Z,23.52
2022-11-20T09:32:35.252Z,27.15
2022-11-20T09:37:33.462Z,35.28
2022-11-20T09:40:00.119Z,32.55
2022-11-20T09:42:41.645Z,26.65
2022-11-20T09:45:19.679Z,28.02
2022-11-20T09:48:00.748Z,25.58
2022-11-20T09:50:32.462Z,25.13
2022-11-20T09:53:12.014Z,29.20
2022-11-20T09:55:39.564Z,27.50
2022-11-20T09:58:08.652Z,31.60
2022-11-20T10:00:38.351Z,29.02
2022-11-20T10:03:14.515Z,22.33
2022-11-20T10:05:45.908Z,20.20
2022-11-20T10:08:18.628Z,22.20
2022-11-20T10:10:52.432Z,23.63
2022-11-20T10:13:32.862Z,25.73
2022-11-20T10:16:17.981Z,32.13
2022-11-20T10:18:59.149Z,22.50
2022-11-20T10:21:37.711Z,22.90
2022-11-20T10:24:23.657Z,21.65
2022-11-20T10:27:00.135Z,24.50
2022-11-20T10:29:33.383Z,24.17
2022-11-20T10:32:05.138Z,24.08
2022-11-20T10:34:39.632Z,22.73
2022-11-20T10:37:12.875Z,22.73
2022-11-20T10:39:48.292Z,22.98
2022-11-20T10:42:23.445Z,25.98
2022-11-20T10:44:56.640Z,28.45
2022-11-20T10:47:27.312Z,31.40
2022-11-20T10:49:56.682Z,41.67
2022-11-20T10:52:33.891Z,28.27
2022-11-20T10:55:12.578Z,24.92
2022-11-20T10:57:53.100Z,26.95
2022-11-20T11:00:19.682Z,19.58
2022-11-20T11:02:49.338Z,19.88
2022-11-20T11:05:28.723Z,18.80
2022-11-20T11:07:56.730Z,21.35
2022-11-20T11:10:29.548Z,20.95
2022-11-20T11:12:56.206Z,23.52
2022-11-20T11:15:28.722Z,26.70
2022-11-20T11:17:57.024Z,29.43
2022-11-20T11:20:24.933Z,23.08
2022-11-20T11:22:53.495Z,22.45
2022-11-20T11:25:25.148Z,19.67
2022-11-20T11:27:53.756Z,18.25
2022-11-20T11:30:21.204Z,17.95
2022-11-20T11:32:48.260Z,18.23
2022-11-20T11:35:25.768Z,20.50
2022-11-20T11:37:54.779Z,19.95
2022-11-20T11:40:24.675Z,22.20
2022-11-20T11:42:55.793Z,20.77
2022-11-20T11:45:22.558Z,19.30
2022-11-20T11:47:51.258Z,16.67
2022-11-20T11:50:21.461Z,23.55
2022-11-20T11:53:09.526Z,25.60
2022-11-20T11:55:41.323Z,17.85
2022-11-20T11:58:18.027Z,18.25
2022-11-20T12:00:52.438Z,16.92
2022-11-20T12:03:22.670Z,17.38
2022-11-20T12:05:56.397Z,17.75
2022-11-20T12:08:30.963Z,17.15
2022-11-20T12:11:04.307Z,22.08
2022-11-20T12:16:05.701Z,17.40
2022-11-20T12:18:32.571Z,16.40
2022-11-20T12:21:12.972Z,20.90
2022-11-20T12:23:52.464Z,35.08
2022-11-20T12:26:31.021Z,22.88
2022-11-20T12:29:08.005Z,19.50
2022-11-20T12:31:53.854Z,21.98
2022-11-20T12:34:37.805Z,18.35
2022-11-20T12:37:13.803Z,17.77
2022-11-20T12:39:49.590Z,18.42
2022-11-20T12:42:31.957Z,23.42
2022-11-20T12:45:11.365Z,18.33
2022-11-20T12:48:00.456Z,22.20
2022-11-20T12:51:00.361Z,20.67
2022-11-20T12:53:34.324Z,24.80
2022-11-20T12:56:18.412Z,24.67
2022-11-20T12:58:55.629Z,23.67
2022-11-20T13:01:28.724Z,19.15
2022-11-20T13:03:59.764Z,16.38
2022-11-20T13:06:27.147Z,53.95
2022-11-20T13:08:55.426Z,70.57
2022-11-20T13:11:32.342Z,20.42
2022-11-20T13:14:13.825Z,27.88
2022-11-20T13:16:47.660Z,22.20
2022-11-20T13:19:16.709Z,23.63
2022-11-20T13:21:45.735Z,22.92
2022-11-20T13:24:23.875Z,21.75
2022-11-20T13:27:06.394Z,19.38
2022-11-20T13:29:34.357Z,19.55
2022-11-20T13:32:08.106Z,18.95
2022-11-20T13:34:36.202Z,24.23
2022-11-20T13:37:03.048Z,20.80
2022-11-20T13:39:32.226Z,19.33
2022-11-20T13:42:01.097Z,18.42
2022-11-20T13:44:35.587Z,19.73
2022-11-20T13:47:02.396Z,20.33
2022-11-20T13:49:33.496Z,20.73
2022-11-20T13:52:21.648Z,19.77
2022-11-20T13:55:07.909Z,16.92
2022-11-20T13:57:51.988Z,18.52
2022-11-20T14:00:21.527Z,18.48
2022-11-20T14:03:00.954Z,18.00
2022-11-20T14:05:27.896Z,24.10
2022-11-20T14:07:55.572Z,23.33
2022-11-20T14:10:31.099Z,17.33
2022-11-20T14:12:58.895Z,56.17
2022-11-20T14:15:29.824Z,33.92
2022-11-20T14:17:57.006Z,19.45
2022-11-20T14:20:26.896Z,27.02
2022-11-20T14:22:55.268Z,22.65
2022-11-20T14:25:23.253Z,28.00
2022-11-20T14:27:53.842Z,20.70
2022-11-20T14:30:23.255Z,24.35
2022-11-20T14:32:54.136Z,21.30
2022-11-20T14:35:24.887Z,16.70
2022-11-20T14:37:52.459Z,20.10
2022-11-20T14:40:28.833Z,17.60
2022-11-20T14:42:56.020Z,19.73
2022-11-20T14:45:23.667Z,16.42
2022-11-20T14:47:52.949Z,24.92
2022-11-20T14:50:22.957Z,19.08
2022-11-20T14:52:55.139Z,21.23
2022-11-20T14:55:32.379Z,17.58
2022-11-20T14:58:01.143Z,20.20
2022-11-20T15:00:28.780Z,19.45
2022-11-20T15:02:57.180Z,21.65
2022-11-20T15:05:26.408Z,20.40
2022-11-20T15:08:06.962Z,19.60
2022-11-20T15:10:33.977Z,20.95
2022-11-20T15:13:08.348Z,16.92
2022-11-20T15:15:47.924Z,20.00
2022-11-20T15:18:18.757Z,17.08
2022-11-20T15:20:45.802Z,18.02
2022-11-20T15:23:14.267Z,20.05
2022-11-20T15:25:42.435Z,16.00
2022-11-20T15:28:16.887Z,19.80
2022-11-20T15:30:43.644Z,20.35
2022-11-20T15:33:11.051Z,18.15
2022-11-20T15:35:39.549Z,21.25
2022-11-20T15:38:06.231Z,20.63
2022-11-20T15:40:33.256Z,16.98
2022-11-20T15:43:00.037Z,16.55
2022-11-20T15:45:29.346Z,17.42
2022-11-20T15:47:56.231Z,21.13
2022-11-20T15:50:26.516Z,22.48
2022-11-20T15:52:54.623Z,22.17
2022-11-20T15:55:21.342Z,18.00
2022-11-20T15:57:48.000Z,18.70
2022-11-20T16:00:19.279Z,19.90
2022-11-20T16:02:50.032Z,19.48
2022-11-20T16:05:16.864Z,16.25
2022-11-20T16:07:43.609Z,18.45
2022-11-20T16:10:11.809Z,20.13
2022-11-20T16:12:38.452Z,18.75
2022-11-20T16:15:10.796Z,19.52
2022-11-20T16:17:40.076Z,17.92
2022-11-20T16:20:11.403Z,23.05
2022-11-20T16:22:38.131Z,21.98
2022-11-20T16:25:05.570Z,14.70
2022-11-20T16:27:33.689Z,17.55
2022-11-20T16:30:00.276Z,16.17
2022-11-20T16:32:27.003Z,18.55
2022-11-20T16:34:53.663Z,17.90
2022-11-20T16:37:20.335Z,16.98
2022-11-20T16:39:47.030Z,14.30
2022-11-20T16:42:13.730Z,18.15
2022-11-20T16:44:41.833Z,17.95
2022-11-20T16:47:08.694Z,15.13
2022-11-20T16:49:35.327Z,16.88
2022-11-20T16:52:02.114Z,19.02
2022-11-20T16:54:28.864Z,17.55
2022-11-20T16:56:55.617Z,14.10
2022-11-20T16:59:22.362Z,14.93
2022-11-20T17:01:50.644Z,15.63
2022-11-20T17:04:17.478Z,15.18
2022-11-20T17:06:44.594Z,16.98
2022-11-20T17:09:13.800Z,16.23
2022-11-20T17:11:40.469Z,19.05
2022-11-20T17:14:07.251Z,15.60
2022-11-20T17:16:35.328Z,16.67
2022-11-20T17:19:04.617Z,18.00
2022-11-20T17:21:31.882Z,14.93
2022-11-20T17:24:01.505Z,16.98
2022-11-20T17:26:28.244Z,18.98
2022-11-20T17:28:56.686Z,16.38
2022-11-20T17:31:23.610Z,14.52
2022-11-20T17:33:50.433Z,15.73
2022-11-20T17:36:20.170Z,13.13
2022-11-20T17:38:47.459Z,15.45
2022-11-20T17:41:15.956Z,21.52
2022-11-20T17:43:43.509Z,17.27
2022-11-20T17:46:12.405Z,17.52
2022-11-20T17:48:39.777Z,20.55
2022-11-20T17:51:06.864Z,23.33
2022-11-20T17:53:36.698Z,22.48
2022-11-20T17:56:04.091Z,19.65
2022-11-20T17:58:30.755Z,21.95
2022-11-20T18:01:04.951Z,20.17
2022-11-20T18:03:31.710Z,19.27
2022-11-20T18:05:58.324Z,18.27
2022-11-20T18:08:27.307Z,18.88
2022-11-20T18:10:55.382Z,17.30
2022-11-20T18:13:22.125Z,17.83
2022-11-20T18:15:49.049Z,18.48
2022-11-20T18:18:15.767Z,19.85
2022-11-20T18:20:42.473Z,19.38
2022-11-20T18:23:09.151Z,22.35
2022-11-20T18:25:35.850Z,19.58
2022-11-20T18:28:03.981Z,19.88
2022-11-20T18:30:30.832Z,19.50
2022-11-20T18:32:57.609Z,19.52
2022-11-20T18:35:24.444Z,17.85
2022-11-20T18:37:51.148Z,17.17
2022-11-20T18:40:17.858Z,18.83
2022-11-20T18:42:44.562Z,17.48
2022-11-20T18:45:12.728Z,18.80
2022-11-20T18:47:39.488Z,18.83
2022-11-20T18:50:08.400Z,25.00
2022-11-20T18:52:39.633Z,19.02
2022-11-20T18:55:07.997Z,22.00
2022-11-20T18:57:34.770Z,18.83
2022-11-20T19:00:07.997Z,23.08
2022-11-20T19:02:42.329Z,21.35
2022-11-20T19:05:10.470Z,18.67
2022-11-20T19:07:37.222Z,19.58
2022-11-20T19:10:04.711Z,20.00
2022-11-20T19:12:31.918Z,19.75
2022-11-20T19:14:58.553Z,27.13
2022-11-20T19:17:25.256Z,40.22
2022-11-20T19:19:53.385Z,41.25
2022-11-20T19:22:20.154Z,37.88
2022-11-20T19:24:46.981Z,35.78
2022-11-20T19:27:13.715Z,35.53
2022-11-20T19:29:40.383Z,38.47
2022-11-20T19:32:07.169Z,28.55
2022-11-20T19:34:33.824Z,29.30
2022-11-20T19:37:02.026Z,30.15
2022-11-20T19:39:28.823Z,30.73
2022-11-20T19:41:55.589Z,25.60
2022-11-20T19:44:22.334Z,21.83
2022-11-20T19:46:49.201Z,25.58
2022-11-20T19:49:15.931Z,25.58
2022-11-20T19:51:46.001Z,29.90
2022-11-20T19:54:14.734Z,21.05
2022-11-20T19:56:41.454Z,22.00
2022-11-20T19:59:08.155Z,26.05
2022-11-20T20:01:35.017Z,22.83
2022-11-20T20:04:02.011Z,22.02
2022-11-20T20:06:29.027Z,25.95
2022-11-20T20:08:57.153Z,20.65
2022-11-20T20:11:27.089Z,20.13
2022-11-20T20:13:54.106Z,20.35
2022-11-20T20:16:22.709Z,22.73
2022-11-20T20:18:49.668Z,21.17
2022-11-20T20:21:17.353Z,18.13
2022-11-20T20:23:44.493Z,18.00
2022-11-20T20:26:11.871Z,17.73
2022-11-20T20:28:39.802Z,18.27
2022-11-20T20:31:08.164Z,24.77
2022-11-20T20:33:35.737Z,18.50
2022-11-20T20:36:02.338Z,18.90
2022-11-20T20:38:28.890Z,17.27
2022-11-20T20:40:56.581Z,19.15
2022-11-20T20:43:23.274Z,17.38
2022-11-20T20:45:51.775Z,23.80
2022-11-20T20:48:20.911Z,20.95
2022-11-20T20:50:53.874Z,16.77
2022-11-20T20:53:20.522Z,21.25
2022-11-20T20:55:53.923Z,20.85
2022-11-20T20:58:20.597Z,16.98
2022-11-20T21:00:47.198Z,21.45
2022-11-20T21:03:15.279Z,19.40
2022-11-20T21:05:41.937Z,22.45
2022-11-20T21:08:08.704Z,16.00
2022-11-20T21:10:35.299Z,18.02
2022-11-20T21:13:01.863Z,18.75
2022-11-20T21:15:28.643Z,17.92
2022-11-20T21:17:55.247Z,22.23
2022-11-20T21:20:23.339Z,23.67
2022-11-20T21:22:49.893Z,18.20
2022-11-20T21:25:16.653Z,24.50
2022-11-20T21:27:43.259Z,21.20
2022-11-20T21:30:10.863Z,20.83
2022-11-20T21:32:37.427Z,22.27
2022-11-20T21:35:04.430Z,23.35
2022-11-20T21:37:34.973Z,21.75
2022-11-20T21:40:04.377Z,18.88
2022-11-20T21:42:30.987Z,19.20
2022-11-20T21:44:57.784Z,19.88
2022-11-20T21:47:24.399Z,20.00
2022-11-20T21:49:51.006Z,20.23
2022-11-20T21:52:17.598Z,19.33
2022-11-20T21:54:45.558Z,19.23
2022-11-20T21:57:12.113Z,25.83
2022-11-20T21:59:38.686Z,23.52
2022-11-20T22:02:05.365Z,21.13
2022-11-20T22:04:32.055Z,20.85
2022-11-20T22:06:58.666Z,19.15
2022-11-20T22:09:25.333Z,19.08
2022-11-20T22:11:53.257Z,18.98
2022-11-20T22:14:19.826Z,20.23
2022-11-20T22:16:46.765Z,20.23
2022-11-20T22:19:16.106Z,18.95
2022-11-20T22:21:42.690Z,15.52
2022-11-20T22:24:12.465Z,18.15
2022-11-20T22:26:40.631Z,17.42
2022-11-20T22:29:14.018Z,18.92
2022-11-20T22:31:40.945Z,18.40
2022-11-20T22:34:10.731Z,19.60
2022-11-20T22:36:37.952Z,19.95
2022-11-20T22:39:05.213Z,18.48
2022-11-20T22:41:32.209Z,17.00
2022-11-20T22:44:00.226Z,19.63
2022-11-20T22:46:30.593Z,20.50
2022-11-20T22:48:59.114Z,22.20
2022-11-20T22:51:27.848Z,19.45
2022-11-20T22:53:54.694Z,22.52
2022-11-20T22:56:21.661Z,21.40
2022-11-20T22:58:50.707Z,17.77
2022-11-20T23:01:19.180Z,19.02
2022-11-20T23:03:49.635Z,20.80
2022-11-20T23:06:17.410Z,21.70
2022-11-20T23:08:44.441Z,26.65
2022-11-20T23:11:13.346Z,23.00
2022-11-20T23:13:40.735Z,22.58
2022-11-20T23:16:09.395Z,23.27
2022-11-20T23:18:36.534Z,24.63
2022-11-20T23:21:08.613Z,25.17
2022-11-20T23:23:35.607Z,25.83
2022-11-20T23:26:02.515Z,31.65
2022-11-20T23:28:29.578Z,32.30
2022-11-20T23:30:56.418Z,28.60
2022-11-20T23:33:23.320Z,24.95
2022-11-20T23:35:50.185Z,24.83
2022-11-20T23:38:18.383Z,24.17
2022-11-20T23:40:47.148Z,26.88
2022-11-20T23:43:13.980Z,42.60
2022-11-20T23:45:40.862Z,38.78
2022-11-20T23:48:07.800Z,37.25
2022-11-20T23:50:35.034Z,31.80
2022-11-20T23:53:01.903Z,33.67
2022-11-20T23:55:30.402Z,30.85
2022-11-20T23:57:57.234Z,35.50
